createdAt,value
2023-05-25T00:01:49.562Z,97611.39
2023-05-25T00:04:19.691Z,97610.27
2023-05-25T00:06:47.928Z,97607.24
2023-05-25T00:09:16.460Z,97605.74
2023-05-25T00:11:44.995Z,97602.13
2023-05-25T00:14:13.682Z,97602.24
2023-05-25T00:16:41.656Z,97601.94
2023-05-25T00:19:10.925Z,97601.74
2023-05-25T00:21:39.000Z,97605.44
2023-05-25T00:24:07.997Z,97606.10
2023-05-25T00:26:36.132Z,97606.90
2023-05-25T00:29:04.665Z,97608.45
2023-05-25T00:31:35.702Z,97611.42
2023-05-25T00:34:03.921Z,97612.29
2023-05-25T00:36:32.021Z,97616.48
2023-05-25T00:39:00.521Z,97621.14
2023-05-25T00:41:28.995Z,97624.75
2023-05-25T00:43:57.756Z,97629.02
2023-05-25T00:46:26.915Z,97630.63
2023-05-25T00:48:56.436Z,97630.70
2023-05-25T00:51:26.039Z,97631.66
2023-05-25T00:53:54.407Z,97629.92
2023-05-25T00:56:29.127Z,97632.05
2023-05-25T00:59:00.767Z,97630.77
2023-05-25T01:01:33.859Z,97632.13
2023-05-25T01:04:07.799Z,97634.25
2023-05-25T01:06:39.941Z,97634.84
2023-05-25T01:09:11.409Z,97636.84
2023-05-25T01:11:43.857Z,97634.73
2023-05-25T01:14:13.013Z,97635.89
2023-05-25T01:16:42.941Z,97638.61
2023-05-25T01:19:11.220Z,97637.56
2023-05-25T01:22:13.287Z,97640.02
2023-05-25T01:24:45.261Z,97637.04
2023-05-25T01:27:25.012Z,97638.27
2023-05-25T01:29:54.699Z,97639.33
2023-05-25T01:32:23.998Z,97637.98
2023-05-25T01:34:55.758Z,97637.69
2023-05-25T01:37:24.933Z,97635.08
2023-05-25T01:39:52.976Z,97634.42
2023-05-25T01:42:21.047Z,97633.46
2023-05-25T01:44:49.931Z,97632.86
2023-05-25T01:47:33.368Z,97633.85
2023-05-25T01:50:32.475Z,97631.52
2023-05-25T01:53:04.250Z,97637.24
2023-05-25T01:55:48.193Z,97636.73
2023-05-25T01:58:17.535Z,97641.35
2023-05-25T02:00:49.805Z,97638.40
2023-05-25T02:03:20.392Z,97637.90
2023-05-25T02:05:50.700Z,97636.84
2023-05-25T02:08:19.168Z,97639.66
2023-05-25T02:10:47.316Z,97641.48
2023-05-25T02:13:15.470Z,97641.96
2023-05-25T02:15:43.911Z,97646.71
2023-05-25T02:18:13.910Z,97646.77
2023-05-25T02:20:42.213Z,97650.05
2023-05-25T02:23:11.340Z,97649.06
2023-05-25T02:25:39.515Z,97649.38
2023-05-25T02:28:07.734Z,97648.05
2023-05-25T02:30:36.019Z,97648.27
2023-05-25T02:33:04.154Z,97654.20
2023-05-25T02:35:32.343Z,97657.22
2023-05-25T02:38:00.402Z,97659.52
2023-05-25T02:40:29.157Z,97665.50
2023-05-25T02:42:57.552Z,97669.32
2023-05-25T02:45:25.710Z,97669.10
2023-05-25T02:47:53.952Z,97667.98
2023-05-25T02:50:23.441Z,97668.85
2023-05-25T02:52:54.285Z,97671.73
2023-05-25T02:55:23.162Z,97675.77
2023-05-25T02:57:52.123Z,97675.63
2023-05-25T03:00:33.725Z,97677.21
2023-05-25T03:03:02.180Z,97676.55
2023-05-25T03:05:30.811Z,97680.64
2023-05-25T03:07:58.813Z,97676.76
2023-05-25T03:10:26.967Z,97678.52
2023-05-25T03:12:55.334Z,97680.98
2023-05-25T03:15:24.436Z,97678.70
2023-05-25T03:17:54.134Z,97675.52
2023-05-25T03:20:24.888Z,97673.92
2023-05-25T03:22:53.587Z,97675.80
2023-05-25T03:25:21.935Z,97672.91
2023-05-25T03:27:54.209Z,97674.85
2023-05-25T03:30:23.207Z,97674.00
2023-05-25T03:32:52.784Z,97672.52
2023-05-25T03:35:21.160Z,97674.50
2023-05-25T03:37:49.686Z,97673.52
2023-05-25T03:40:18.772Z,97673.89
2023-05-25T03:42:46.880Z,97671.99
2023-05-25T03:45:15.193Z,97674.35
2023-05-25T03:47:43.294Z,97677.02
2023-05-25T03:50:12.002Z,97680.64
2023-05-25T03:52:40.058Z,97682.44
2023-05-25T03:55:08.589Z,97690.58
2023-05-25T03:57:36.637Z,97696.27
2023-05-25T04:00:05.416Z,97695.17
2023-05-25T04:02:40.835Z,97691.91
2023-05-25T04:05:09.611Z,97691.29
2023-05-25T04:07:38.168Z,97693.38
2023-05-25T04:10:07.325Z,97689.27
2023-05-25T04:12:35.301Z,97689.60
2023-05-25T04:15:05.615Z,97682.52
2023-05-25T04:17:39.509Z,97678.37
2023-05-25T04:20:09.196Z,97677.05
2023-05-25T04:22:39.109Z,97681.76
2023-05-25T04:25:08.533Z,97685.67
2023-05-25T04:27:37.251Z,97693.89
2023-05-25T04:30:07.730Z,97696.64
2023-05-25T04:32:55.473Z,97696.02
2023-05-25T04:35:43.986Z,97701.69
2023-05-25T04:38:12.746Z,97702.92
2023-05-25T04:40:41.991Z,97704.26
2023-05-25T04:43:11.607Z,97706.64
2023-05-25T04:45:39.947Z,97706.13
2023-05-25T04:48:09.802Z,97706.46
2023-05-25T04:50:43.250Z,97708.60
2023-05-25T04:53:11.905Z,97710.63
2023-05-25T04:55:40.203Z,97708.80
2023-05-25T04:58:08.320Z,97705.44
2023-05-25T05:00:36.624Z,97709.16
2023-05-25T05:03:05.733Z,97711.02
2023-05-25T05:05:36.718Z,97708.67
2023-05-25T05:08:06.750Z,97709.00
2023-05-25T05:10:35.042Z,97710.69
2023-05-25T05:13:04.746Z,97715.12
2023-05-25T05:15:33.812Z,97713.45
2023-05-25T05:18:01.825Z,97717.13
2023-05-25T05:20:30.816Z,97713.92
2023-05-25T05:22:58.933Z,97713.06
2023-05-25T05:25:27.045Z,97718.29
2023-05-25T05:27:55.471Z,97714.36
2023-05-25T05:30:26.893Z,97715.02
2023-05-25T05:32:55.242Z,97713.36
2023-05-25T05:35:25.414Z,97715.23
2023-05-25T05:38:02.336Z,97711.57
2023-05-25T05:40:30.768Z,97710.68
2023-05-25T05:42:59.680Z,97709.83
2023-05-25T05:45:28.086Z,97708.20
2023-05-25T05:47:57.404Z,97705.45
2023-05-25T05:50:25.919Z,97708.79
2023-05-25T05:52:54.481Z,97709.42
2023-05-25T05:55:23.746Z,97707.30
2023-05-25T05:57:53.930Z,97708.82
2023-05-25T06:00:22.321Z,97706.02
2023-05-25T06:02:52.142Z,97706.74
2023-05-25T06:05:22.587Z,97710.61
2023-05-25T06:07:53.120Z,97712.66
2023-05-25T06:10:22.224Z,97709.84
2023-05-25T06:12:50.652Z,97712.04
2023-05-25T06:15:19.392Z,97715.25
2023-05-25T06:17:48.718Z,97719.34
2023-05-25T06:20:17.526Z,97721.00
2023-05-25T06:22:46.719Z,97721.79
2023-05-25T06:25:16.801Z,97721.73
2023-05-25T06:27:45.255Z,97724.83
2023-05-25T06:30:14.028Z,97721.17
2023-05-25T06:32:43.849Z,97721.48
2023-05-25T06:35:19.829Z,97720.65
2023-05-25T06:37:50.717Z,97719.13
2023-05-25T06:40:20.956Z,97714.97
2023-05-25T06:42:49.419Z,97714.55
2023-05-25T06:45:48.487Z,97717.56
2023-05-25T06:48:17.267Z,97719.55
2023-05-25T06:50:46.605Z,97717.36
2023-05-25T06:53:14.871Z,97719.99
2023-05-25T06:55:43.488Z,97722.98
2023-05-25T06:58:12.701Z,97723.67
2023-05-25T07:00:41.463Z,97721.86
2023-05-25T07:03:09.588Z,97720.79
2023-05-25T07:05:37.815Z,97716.40
2023-05-25T07:08:06.328Z,97719.10
2023-05-25T07:10:34.778Z,97718.91
2023-05-25T07:13:02.898Z,97723.31
2023-05-25T07:15:31.224Z,97724.27
2023-05-25T07:17:59.554Z,97724.02
2023-05-25T07:20:27.765Z,97722.50
2023-05-25T07:22:55.943Z,97724.93
2023-05-25T07:25:24.172Z,97725.98
2023-05-25T07:27:55.316Z,97729.19
2023-05-25T07:30:23.547Z,97727.61
2023-05-25T07:32:51.856Z,97726.63
2023-05-25T07:35:20.141Z,97726.04
2023-05-25T07:38:04.554Z,97726.27
2023-05-25T07:40:33.162Z,97725.44
2023-05-25T07:43:06.861Z,97722.88
2023-05-25T07:45:36.745Z,97722.69
2023-05-25T07:48:17.131Z,97721.75
2023-05-25T07:50:46.518Z,97724.19
2023-05-25T07:53:15.030Z,97721.23
2023-05-25T07:55:43.710Z,97720.41
2023-05-25T07:58:12.198Z,97719.02
2023-05-25T08:00:40.591Z,97720.08
2023-05-25T08:03:08.989Z,97721.41
2023-05-25T08:05:37.813Z,97720.38
2023-05-25T08:08:06.288Z,97717.13
2023-05-25T08:10:34.902Z,97714.72
2023-05-25T08:13:03.229Z,97718.65
2023-05-25T08:15:31.820Z,97719.31
2023-05-25T08:18:00.345Z,97718.36
2023-05-25T08:20:28.666Z,97717.71
2023-05-25T08:22:56.948Z,97714.80
2023-05-25T08:25:25.625Z,97718.67
2023-05-25T08:27:53.998Z,97716.08
2023-05-25T08:30:22.322Z,97714.85
2023-05-25T08:32:50.955Z,97713.21
2023-05-25T08:35:19.803Z,97710.76
2023-05-25T08:37:48.226Z,97711.09
2023-05-25T08:40:18.965Z,97715.67
2023-05-25T08:42:47.582Z,97716.70
2023-05-25T08:45:26.875Z,97718.67
2023-05-25T08:48:08.377Z,97716.13
2023-05-25T08:50:38.907Z,97714.88
2023-05-25T08:53:12.111Z,97713.46
2023-05-25T08:55:43.817Z,97713.53
2023-05-25T08:58:19.839Z,97711.34
2023-05-25T09:00:57.295Z,97712.31
2023-05-25T09:03:27.262Z,97715.58
2023-05-25T09:05:57.973Z,97713.94
2023-05-25T09:08:27.689Z,97716.77
2023-05-25T09:10:58.029Z,97718.34
2023-05-25T09:13:26.942Z,97715.96
2023-05-25T09:15:56.108Z,97719.08
2023-05-25T09:18:24.470Z,97717.23
2023-05-25T09:20:53.598Z,97716.43
2023-05-25T09:23:22.474Z,97717.00
2023-05-25T09:25:51.800Z,97719.20
2023-05-25T09:28:26.402Z,97718.46
2023-05-25T09:30:56.813Z,97725.63
2023-05-25T09:33:25.249Z,97727.61
2023-05-25T09:35:53.778Z,97729.48
2023-05-25T09:38:22.912Z,97728.46
2023-05-25T09:40:51.425Z,97730.35
2023-05-25T09:43:32.272Z,97724.91
2023-05-25T09:46:08.480Z,97727.98
2023-05-25T09:48:37.389Z,97726.36
2023-05-25T09:51:07.353Z,97729.73
2023-05-25T09:53:35.939Z,97731.25
2023-05-25T09:56:04.475Z,97731.02
2023-05-25T09:58:33.044Z,97732.77
2023-05-25T10:01:01.507Z,97728.19
2023-05-25T10:03:29.812Z,97724.65
2023-05-25T10:05:58.133Z,97722.20
2023-05-25T10:08:29.068Z,97721.53
2023-05-25T10:10:57.801Z,97716.16
2023-05-25T10:13:30.761Z,97715.84
2023-05-25T10:16:00.231Z,97715.89
2023-05-25T10:18:30.267Z,97710.27
2023-05-25T10:21:04.796Z,97708.30
2023-05-25T10:23:42.240Z,97707.70
2023-05-25T10:26:16.533Z,97706.98
2023-05-25T10:28:48.431Z,97708.02
2023-05-25T10:31:18.393Z,97704.33
2023-05-25T10:33:50.622Z,97701.84
2023-05-25T10:36:21.899Z,97700.13
2023-05-25T10:38:52.585Z,97696.35
2023-05-25T10:41:22.049Z,97693.39
2023-05-25T10:43:53.684Z,97688.86
2023-05-25T10:46:22.437Z,97685.33
2023-05-25T10:49:00.774Z,97688.13
2023-05-25T10:51:39.651Z,97679.38
2023-05-25T10:54:08.223Z,97675.41
2023-05-25T10:56:36.784Z,97670.77
2023-05-25T10:59:06.069Z,97667.70
2023-05-25T11:01:50.764Z,97663.17
2023-05-25T11:04:19.209Z,97664.33
2023-05-25T11:06:48.194Z,97659.45
2023-05-25T11:09:29.048Z,97656.86
2023-05-25T11:11:59.867Z,97654.20
2023-05-25T11:14:31.571Z,97650.19
2023-05-25T11:17:13.128Z,97646.84
2023-05-25T11:19:45.001Z,97648.50
2023-05-25T11:22:18.295Z,97647.64
2023-05-25T11:24:59.587Z,97643.89
2023-05-25T11:27:30.024Z,97643.95
2023-05-25T11:30:00.276Z,97639.30
2023-05-25T11:32:29.492Z,97633.45
2023-05-25T11:34:59.511Z,97637.84
2023-05-25T11:37:31.932Z,97631.55
2023-05-25T11:40:00.669Z,97628.90
2023-05-25T11:42:29.663Z,97626.63
2023-05-25T11:45:03.436Z,97621.89
2023-05-25T11:47:33.531Z,97615.91
2023-05-25T11:50:04.366Z,97614.98
2023-05-25T11:52:33.493Z,97615.61
2023-05-25T11:55:02.589Z,97610.08
2023-05-25T11:57:31.867Z,97608.02
2023-05-25T12:00:03.227Z,97606.83
2023-05-25T12:02:39.954Z,97604.14
2023-05-25T12:05:11.125Z,97598.03
2023-05-25T12:07:45.130Z,97594.41
2023-05-25T12:10:16.927Z,97592.77
2023-05-25T12:12:50.975Z,97587.20
2023-05-25T12:15:24.770Z,97587.04
2023-05-25T12:17:54.657Z,97587.44
2023-05-25T12:20:23.458Z,97585.70
2023-05-25T12:22:52.426Z,97585.21
2023-05-25T12:25:24.967Z,97579.73
2023-05-25T12:28:13.819Z,97575.54
2023-05-25T12:30:42.290Z,97574.59
2023-05-25T12:33:14.352Z,97569.24
2023-05-25T12:35:48.490Z,97566.71
2023-05-25T12:38:22.201Z,97565.31
2023-05-25T12:41:09.653Z,97566.89
2023-05-25T12:43:44.069Z,97560.70
2023-05-25T12:46:23.887Z,97559.00
2023-05-25T12:48:52.429Z,97559.75
2023-05-25T12:51:20.950Z,97558.48
2023-05-25T12:53:53.330Z,97556.18
2023-05-25T12:56:22.731Z,97549.89
2023-05-25T12:58:51.208Z,97551.83
2023-05-25T13:01:19.746Z,97554.93
2023-05-25T13:03:48.421Z,97548.64
2023-05-25T13:06:16.881Z,97545.60
2023-05-25T13:08:45.834Z,97544.03
2023-05-25T13:11:15.308Z,97547.99
2023-05-25T13:13:45.118Z,97542.95
2023-05-25T13:16:13.674Z,97537.67
2023-05-25T13:18:42.310Z,97535.42
2023-05-25T13:21:11.095Z,97534.86
2023-05-25T13:23:39.532Z,97530.59
2023-05-25T13:26:08.045Z,97530.38
2023-05-25T13:28:36.322Z,97528.90
2023-05-25T13:31:05.032Z,97524.21
2023-05-25T13:33:33.459Z,97524.00
2023-05-25T13:36:11.064Z,97523.95
2023-05-25T13:38:39.594Z,97526.54
2023-05-25T13:41:08.246Z,97531.36
2023-05-25T13:43:37.137Z,97530.99
2023-05-25T13:46:05.676Z,97531.98
2023-05-25T13:48:33.976Z,97535.45
2023-05-25T13:51:04.249Z,97534.19
2023-05-25T13:53:32.900Z,97537.17
2023-05-25T13:56:01.311Z,97537.59
2023-05-25T13:58:29.568Z,97536.55
2023-05-25T14:00:58.030Z,97536.94
2023-05-25T14:03:26.713Z,97537.59
2023-05-25T14:05:55.511Z,97537.00
2023-05-25T14:08:24.039Z,97536.11
2023-05-25T14:10:52.526Z,97538.08
2023-05-25T14:13:21.117Z,97533.19
2023-05-25T14:15:49.623Z,97536.31
2023-05-25T14:18:18.564Z,97532.38
2023-05-25T14:20:47.571Z,97530.20
2023-05-25T14:23:18.391Z,97526.55
2023-05-25T14:25:48.925Z,97528.29
2023-05-25T14:28:17.566Z,97523.23
2023-05-25T14:30:46.408Z,97517.88
2023-05-25T14:33:17.448Z,97519.27
2023-05-25T14:35:46.426Z,97513.31
2023-05-25T14:38:15.430Z,97509.73
2023-05-25T14:40:44.305Z,97506.35
2023-05-25T14:43:13.070Z,97505.00
2023-05-25T14:45:41.808Z,97506.52
2023-05-25T14:48:16.734Z,97508.00
2023-05-25T14:50:45.656Z,97505.64
2023-05-25T14:53:14.294Z,97505.95
2023-05-25T14:55:42.944Z,97504.30
2023-05-25T14:58:12.308Z,97502.85
2023-05-25T15:00:41.311Z,97499.23
2023-05-25T15:03:09.771Z,97504.45
2023-05-25T15:05:38.926Z,97506.83
2023-05-25T15:08:09.580Z,97501.73
2023-05-25T15:10:38.290Z,97500.95
2023-05-25T15:13:07.401Z,97497.77
2023-05-25T15:15:36.212Z,97495.57
2023-05-25T15:18:04.966Z,97495.65
2023-05-25T15:20:34.762Z,97494.23
2023-05-25T15:23:03.346Z,97496.02
2023-05-25T15:25:35.473Z,97497.20
2023-05-25T15:28:04.696Z,97500.38
2023-05-25T15:30:34.675Z,97497.58
2023-05-25T15:33:03.632Z,97489.63
2023-05-25T15:35:32.701Z,97496.30
2023-05-25T15:38:01.988Z,97494.96
2023-05-25T15:40:31.869Z,97496.54
2023-05-25T15:43:00.639Z,97497.72
2023-05-25T15:45:29.252Z,97499.27
2023-05-25T15:47:58.938Z,97499.88
2023-05-25T15:50:28.749Z,97500.18
2023-05-25T15:52:58.011Z,97502.51
2023-05-25T15:55:28.124Z,97500.44
2023-05-25T15:57:56.572Z,97501.53
2023-05-25T16:00:26.031Z,97501.25
2023-05-25T16:02:54.937Z,97508.60
2023-05-25T16:05:24.194Z,97511.34
2023-05-25T16:07:53.089Z,97516.13
2023-05-25T16:10:21.631Z,97521.47
2023-05-25T16:12:50.106Z,97528.13
2023-05-25T16:15:18.606Z,97525.79
2023-05-25T16:17:47.046Z,97527.39
2023-05-25T16:20:15.484Z,97526.88
2023-05-25T16:22:43.991Z,97526.85
2023-05-25T16:25:12.441Z,97530.08
2023-05-25T16:27:41.255Z,97536.96
2023-05-25T16:30:12.553Z,97534.91
2023-05-25T16:32:42.266Z,97540.00
2023-05-25T16:35:10.973Z,97542.05
2023-05-25T16:37:39.265Z,97543.85
2023-05-25T16:40:09.096Z,97544.40
2023-05-25T16:42:38.038Z,97543.44
2023-05-25T16:45:07.184Z,97544.21
2023-05-25T16:47:35.671Z,97545.37
2023-05-25T16:50:04.302Z,97551.20
2023-05-25T16:52:32.613Z,97552.56
2023-05-25T16:55:00.984Z,97552.90
2023-05-25T16:57:29.501Z,97556.71
2023-05-25T16:59:57.950Z,97552.96
2023-05-25T17:02:26.323Z,97552.34
2023-05-25T17:04:54.522Z,97553.16
2023-05-25T17:07:23.165Z,97554.27
2023-05-25T17:09:51.611Z,97554.05
2023-05-25T17:12:20.654Z,97560.24
2023-05-25T17:14:49.032Z,97562.17
2023-05-25T17:17:17.701Z,97566.98
2023-05-25T17:19:46.254Z,97563.69
2023-05-25T17:22:14.467Z,97571.09
2023-05-25T17:24:42.997Z,97577.80
2023-05-25T17:27:11.510Z,97580.48
2023-05-25T17:29:40.032Z,97583.56
2023-05-25T17:32:08.863Z,97590.92
2023-05-25T17:34:37.359Z,97594.80
2023-05-25T17:37:05.797Z,97600.67
2023-05-25T17:39:34.178Z,97604.29
2023-05-25T17:42:03.645Z,97608.06
2023-05-25T17:44:32.663Z,97606.69
2023-05-25T17:47:01.174Z,97606.96
2023-05-25T17:49:29.433Z,97607.67
2023-05-25T17:51:58.709Z,97609.46
2023-05-25T17:54:27.677Z,97606.71
2023-05-25T17:56:56.775Z,97608.00
2023-05-25T17:59:25.922Z,97610.80
2023-05-25T18:01:54.474Z,97611.58
2023-05-25T18:04:22.904Z,97612.20
2023-05-25T18:06:52.515Z,97616.34
2023-05-25T18:09:21.425Z,97621.35
2023-05-25T18:11:49.534Z,97628.21
2023-05-25T18:14:18.092Z,97629.20
2023-05-25T18:16:47.182Z,97629.64
2023-05-25T18:19:18.073Z,97631.95
2023-05-25T18:21:46.674Z,97639.03
2023-05-25T18:24:14.863Z,97641.89
2023-05-25T18:26:46.564Z,97639.48
2023-05-25T18:29:16.708Z,97641.02
2023-05-25T18:31:49.056Z,97642.61
2023-05-25T18:34:17.528Z,97646.98
2023-05-25T18:36:45.739Z,97651.84
2023-05-25T18:39:13.795Z,97659.46
2023-05-25T18:41:42.835Z,97660.63
2023-05-25T18:44:12.250Z,97663.32
2023-05-25T18:46:43.875Z,97665.96
2023-05-25T18:49:12.545Z,97666.21
2023-05-25T18:51:41.761Z,97669.86
2023-05-25T18:54:11.045Z,97670.11
2023-05-25T18:56:39.459Z,97673.77
2023-05-25T18:59:07.853Z,97673.52
2023-05-25T19:01:36.369Z,97672.25
2023-05-25T19:04:06.290Z,97675.63
2023-05-25T19:06:36.509Z,97679.01
2023-05-25T19:09:05.192Z,97683.20
2023-05-25T19:11:33.761Z,97682.26
2023-05-25T19:14:02.066Z,97680.89
2023-05-25T19:16:30.719Z,97683.67
2023-05-25T19:18:59.504Z,97685.49
2023-05-25T19:21:27.902Z,97688.88
2023-05-25T19:23:58.088Z,97684.52
2023-05-25T19:26:27.732Z,97681.20
2023-05-25T19:28:56.243Z,97686.59
2023-05-25T19:31:26.218Z,97684.09
2023-05-25T19:33:54.379Z,97685.33
2023-05-25T19:36:23.152Z,97684.26
2023-05-25T19:38:51.558Z,97685.91
2023-05-25T19:41:19.710Z,97685.98
2023-05-25T19:43:48.131Z,97679.34
2023-05-25T19:46:17.644Z,97676.42
2023-05-25T19:48:46.433Z,97673.14
2023-05-25T19:51:14.914Z,97675.31
2023-05-25T19:53:43.514Z,97673.23
2023-05-25T19:56:12.348Z,97673.42
2023-05-25T19:58:41.031Z,97677.64
2023-05-25T20:01:11.377Z,97682.42
2023-05-25T20:03:40.354Z,97686.90
2023-05-25T20:06:08.939Z,97685.64
2023-05-25T20:08:37.794Z,97682.95
2023-05-25T20:11:05.845Z,97684.67
2023-05-25T20:13:35.284Z,97683.67
2023-05-25T20:16:04.239Z,97680.91
2023-05-25T20:18:32.393Z,97680.11
2023-05-25T20:21:00.897Z,97682.94
2023-05-25T20:23:29.179Z,97682.16
2023-05-25T20:25:57.349Z,97683.52
2023-05-25T20:28:26.039Z,97679.90
2023-05-25T20:30:54.369Z,97675.91
2023-05-25T20:33:22.831Z,97679.12
2023-05-25T20:35:51.936Z,97673.98
2023-05-25T20:38:21.713Z,97668.98
2023-05-25T20:40:49.768Z,97663.73
2023-05-25T20:43:18.116Z,97662.85
2023-05-25T20:45:46.670Z,97668.88
2023-05-25T20:48:15.907Z,97681.04
2023-05-25T20:50:44.844Z,97685.99
2023-05-25T20:53:13.272Z,97693.06
2023-05-25T20:55:42.724Z,97703.64
2023-05-25T20:58:11.248Z,97710.10
2023-05-25T21:00:40.038Z,97707.17
2023-05-25T21:06:26.669Z,97716.15
2023-05-25T21:08:54.897Z,97717.95
2023-05-25T21:11:23.054Z,97715.84
2023-05-25T21:13:51.060Z,97719.43
2023-05-25T21:16:19.222Z,97724.76
2023-05-25T21:18:47.500Z,97734.19
2023-05-25T21:21:16.303Z,97750.73
2023-05-25T21:23:44.398Z,97755.59
2023-05-25T21:26:12.676Z,97771.07
2023-05-25T21:28:40.790Z,97780.34
2023-05-25T21:31:08.938Z,97779.44
2023-05-25T21:33:37.887Z,97778.50
2023-05-25T21:36:06.409Z,97777.23
2023-05-25T21:38:34.424Z,97775.27
2023-05-25T21:41:02.567Z,97774.99
2023-05-25T21:43:31.121Z,97778.84
2023-05-25T21:45:59.213Z,97774.62
2023-05-25T21:48:27.495Z,97770.95
2023-05-25T21:50:55.704Z,97769.52
2023-05-25T21:53:23.802Z,97764.65
2023-05-25T21:55:53.200Z,97764.73
2023-05-25T21:58:21.493Z,97765.23
2023-05-25T22:00:49.602Z,97769.89
2023-05-25T22:03:18.559Z,97766.35
2023-05-25T22:05:46.933Z,97767.36
2023-05-25T22:08:15.151Z,97769.27
2023-05-25T22:10:43.345Z,97767.85
2023-05-25T22:13:11.791Z,97767.46
